• Join FlightAware (Why Join?)
  • Login
  • US Flag 
12:40AM EDT


 

Airport Tracker/Info


-or-


 

Live Flight TrackerFlight Track Log ✈ EJM214 ✈ 16-Oct-2013 ✈ KMSN - KLSE

Flight Track Log - Related Links

Times and Time Zones

All times are in EDT time to prevent confusion due to time zone crossing. See the EJM214 flight status page for this flight to view local times or setup timezone preferences in your user account.

Time Position Orientation Groundspeed Altitude Reporting Facility
EDT Latitude Longitude Course Direction KTS MPH feet Rate Location/Type
02:42PM 43.1717 -89.3708 299° West 242 278 2,800  Level Minneapolis Center
02:43PM 43.2097 -89.4531 302° West 265 305 7,600 3,420 Climbing Minneapolis Center
02:44PM 43.2478 -89.5544 297° West 281 323 9,900 1,860 Climbing Minneapolis Center
02:45PM 43.2911 -89.6686 298° West 320 368 11,500 960 Climbing Minneapolis Center
02:46PM 43.3397 -89.7958 298° West 356 410 12,000 240 Climbing Minneapolis Center
02:48PM 43.3354 -89.8407 299° West  Level FlightAware Approximate
02:48PM 43.3875 -89.9231 297° West 360 414 12,100  Level Minneapolis Center
02:49PM 43.4325 -90.0472 297° West 362 417 11,900 -120 Descending Chicago Center
02:50PM 43.4872 -90.1925 297° West 358 412 11,900  Level Chicago Center
02:51PM 43.5267 -90.2986 297° West 359 413 12,000  Climbing Chicago Center
02:52PM 43.5808 -90.4447 297° West 360 414 12,000 -60 Level Chicago Center
02:53PM 43.6250 -90.5642 297° West 356 410 11,900 -780 Descending Chicago Center
02:54PM 43.6583 -90.6739 293° West 326 375 10,500 -1,560 Descending Minneapolis Center
02:55PM 43.6558 -90.7900 268° West 286 329 8,900 -1,500 Descending Minneapolis Center
02:56PM 43.6536 -90.8994 268° West 274 315 7,400 -1,500 Descending Minneapolis Center
02:57PM 43.6511 -91.0019 268° West 277 319 5,900 -1,500 Descending Minneapolis Center
02:58PM 43.6489 -91.1100 268° West 270 311 4,300 -960 Descending Minneapolis Center
02:59PM 43.6461 -91.2072 268° West 248 285 4,000 -720 Descending Minneapolis Center
03:00PM 43.6822 -91.2572 315° West 207 238 2,900 -720 Descending Minneapolis Center
03:01PM 43.7450 -91.2606 358° North 209 241 2,500 -420 Descending Minneapolis Center
03:03PM 43.8667 -91.2500 336° Northwest  Level FlightAware Approximate
03:10PM 43.8793 -91.2566 336° Northwest  Level Estimated